sensor_id;sensor_type;location;lat;lon;timestamp;pressure;altitude;pressure_sealevel;temperature;humidity
42001;BME280;27689;48.390;10.856;2023-12-20T00:01:23;96118.16;;;5.95;66.14
42001;BME280;27689;48.390;10.856;2023-12-20T00:04:07;96119.59;;;5.99;65.87
42001;BME280;27689;48.390;10.856;2023-12-20T00:06:51;96120.09;;;5.93;66.48
42001;BME280;27689;48.390;10.856;2023-12-20T00:09:35;96119.81;;;5.96;66.18
42001;BME280;27689;48.390;10.856;2023-12-20T00:12:19;96125.63;;;6.00;65.98
42001;BME280;27689;48.390;10.856;2023-12-20T00:15:03;96108.38;;;5.99;66.35
42001;BME280;27689;48.390;10.856;2023-12-20T00:17:47;96100.09;;;5.94;66.57
42001;BME280;27689;48.390;10.856;2023-12-20T00:20:31;96077.66;;;5.93;66.13
42001;BME280;27689;48.390;10.856;2023-12-20T00:23:15;96075.63;;;5.96;65.69
42001;BME280;27689;48.390;10.856;2023-12-20T00:25:58;96085.78;;;5.99;65.25
42001;BME280;27689;48.390;10.856;2023-12-20T00:28:42;96086.16;;;6.06;65.69
42001;BME280;27689;48.390;10.856;2023-12-20T00:31:26;96096.56;;;6.06;65.45
42001;BME280;27689;48.390;10.856;2023-12-20T00:34:10;96098.78;;;6.11;64.94
42001;BME280;27689;48.390;10.856;2023-12-20T00:36:54;96109.44;;;6.08;64.85
42001;BME280;27689;48.390;10.856;2023-12-20T00:39:38;96121.13;;;6.02;65.60
42001;BME280;27689;48.390;10.856;2023-12-20T00:42:22;96124.78;;;5.99;65.97
42001;BME280;27689;48.390;10.856;2023-12-20T00:45:06;96126.00;;;6.07;66.45
42001;BME280;27689;48.390;10.856;2023-12-20T00:47:50;96122.56;;;6.06;66.31
42001;BME280;27689;48.390;10.856;2023-12-20T00:50:34;96107.78;;;6.07;66.21
42001;BME280;27689;48.390;10.856;2023-12-20T00:53:18;96107.53;;;6.10;66.54
42001;BME280;27689;48.390;10.856;2023-12-20T00:56:02;96103.06;;;6.00;67.04
42001;BME280;27689;48.390;10.856;2023-12-20T00:58:46;96101.50;;;5.98;67.59
42001;BME280;27689;48.390;10.856;2023-12-20T01:01:30;96103.53;;;6.06;67.47
42001;BME280;27689;48.390;10.856;2023-12-20T01:04:16;96093.81;;;5.96;68.13
42001;BME280;27689;48.390;10.856;2023-12-20T01:07:00;96102.09;;;6.01;68.60
42001;BME280;27689;48.390;10.856;2023-12-20T01:09:44;96099.03;;;5.96;69.11
42001;BME280;27689;48.390;10.856;2023-12-20T01:12:28;96085.56;;;6.03;69.09
42001;BME280;27689;48.390;10.856;2023-12-20T01:15:12;96096.41;;;5.85;70.24
42001;BME280;27689;48.390;10.856;2023-12-20T01:17:56;96090.16;;;5.88;70.60
42001;BME280;27689;48.390;10.856;2023-12-20T01:20:42;96075.84;;;5.82;71.28
42001;BME280;27689;48.390;10.856;2023-12-20T01:23:26;96072.06;;;5.86;71.39
42001;BME280;27689;48.390;10.856;2023-12-20T01:26:10;96065.72;;;5.90;71.76
42001;BME280;27689;48.390;10.856;2023-12-20T01:28:54;96073.84;;;5.86;72.13
42001;BME280;27689;48.390;10.856;2023-12-20T01:31:38;96064.78;;;5.91;72.44
42001;BME280;27689;48.390;10.856;2023-12-20T01:34:21;96059.81;;;5.88;72.81
42001;BME280;27689;48.390;10.856;2023-12-20T01:37:05;96056.59;;;5.85;73.63
42001;BME280;27689;48.390;10.856;2023-12-20T01:39:49;96049.28;;;5.90;73.38
42001;BME280;27689;48.390;10.856;2023-12-20T01:42:33;96041.72;;;5.76;74.59
42001;BME280;27689;48.390;10.856;2023-12-20T01:45:17;96042.16;;;5.70;75.01
42001;BME280;27689;48.390;10.856;2023-12-20T01:48:01;96025.28;;;5.64;75.39
42001;BME280;27689;48.390;10.856;2023-12-20T01:50:46;96021.16;;;5.61;75.43
42001;BME280;27689;48.390;10.856;2023-12-20T01:53:30;96023.06;;;5.59;75.63
42001;BME280;27689;48.390;10.856;2023-12-20T01:56:16;96019.41;;;5.62;74.24
42001;BME280;27689;48.390;10.856;2023-12-20T01:59:00;96025.03;;;5.67;73.60
42001;BME280;27689;48.390;10.856;2023-12-20T02:01:44;96015.38;;;5.58;74.29
42001;BME280;27689;48.390;10.856;2023-12-20T02:04:28;96012.75;;;5.69;73.61
42001;BME280;27689;48.390;10.856;2023-12-20T02:07:12;96018.66;;;5.71;73.22
42001;BME280;27689;48.390;10.856;2023-12-20T02:09:56;96017.00;;;5.70;73.69
42001;BME280;27689;48.390;10.856;2023-12-20T02:12:40;96016.31;;;5.68;74.14
42001;BME280;27689;48.390;10.856;2023-12-20T02:15:24;96018.78;;;5.70;74.59
42001;BME280;27689;48.390;10.856;2023-12-20T02:18:08;96009.22;;;5.70;74.83
42001;BME280;27689;48.390;10.856;2023-12-20T02:20:52;96021.38;;;5.70;75.14
42001;BME280;27689;48.390;10.856;2023-12-20T02:23:37;96032.13;;;5.65;75.48
42001;BME280;27689;48.390;10.856;2023-12-20T02:26:21;96027.63;;;5.67;75.83
42001;BME280;27689;48.390;10.856;2023-12-20T02:29:04;96016.78;;;5.62;76.26
42001;BME280;27689;48.390;10.856;2023-12-20T02:31:48;96019.13;;;5.65;76.58
42001;BME280;27689;48.390;10.856;2023-12-20T02:34:32;96021.16;;;5.61;77.05
42001;BME280;27689;48.390;10.856;2023-12-20T02:37:16;96013.00;;;5.55;78.55
42001;BME280;27689;48.390;10.856;2023-12-20T02:40:00;96008.63;;;5.55;79.13
42001;BME280;27689;48.390;10.856;2023-12-20T02:42:44;96016.41;;;5.66;79.85
42001;BME280;27689;48.390;10.856;2023-12-20T02:45:28;96004.84;;;5.59;80.72
42001;BME280;27689;48.390;10.856;2023-12-20T02:48:12;96010.88;;;5.60;82.29
42001;BME280;27689;48.390;10.856;2023-12-20T02:50:56;96015.50;;;5.56;83.21
42001;BME280;27689;48.390;10.856;2023-12-20T02:53:40;96021.28;;;5.60;85.02
42001;BME280;27689;48.390;10.856;2023-12-20T02:56:23;96023.28;;;5.56;87.16
42001;BME280;27689;48.390;10.856;2023-12-20T02:59:07;96023.16;;;5.58;89.88
42001;BME280;27689;48.390;10.856;2023-12-20T03:01:52;96034.28;;;5.60;92.27
42001;BME280;27689;48.390;10.856;2023-12-20T03:04:36;96034.97;;;5.62;93.96
42001;BME280;27689;48.390;10.856;2023-12-20T03:07:20;96032.63;;;5.48;97.62
42001;BME280;27689;48.390;10.856;2023-12-20T03:10:04;96040.41;;;5.48;99.92
42001;BME280;27689;48.390;10.856;2023-12-20T03:12:49;96046.06;;;5.42;100.00
42001;BME280;27689;48.390;10.856;2023-12-20T03:15:33;96048.78;;;5.29;100.00
42001;BME280;27689;48.390;10.856;2023-12-20T03:18:17;96042.75;;;5.28;100.00
42001;BME280;27689;48.390;10.856;2023-12-20T03:21:02;96049.34;;;5.21;100.00
42001;BME280;27689;48.390;10.856;2023-12-20T03:23:46;96057.94;;;5.11;100.00
42001;BME280;27689;48.390;10.856;2023-12-20T03:26:30;96050.75;;;5.14;100.00
42001;BME280;27689;48.390;10.856;2023-12-20T03:29:14;96050.97;;;5.11;100.00
42001;BME280;27689;48.390;10.856;2023-12-20T03:31:58;96061.81;;;5.05;100.00
42001;BME280;27689;48.390;10.856;2023-12-20T03:34:42;96065.00;;;5.09;100.00
42001;BME280;27689;48.390;10.856;2023-12-20T03:37:26;96071.84;;;4.99;100.00
42001;BME280;27689;48.390;10.856;2023-12-20T03:40:10;96066.66;;;4.99;100.00
42001;BME280;27689;48.390;10.856;2023-12-20T03:42:53;96060.88;;;5.06;100.00
42001;BME280;27689;48.390;10.856;2023-12-20T03:45:37;96066.38;;;4.90;100.00
42001;BME280;27689;48.390;10.856;2023-12-20T03:48:21;96058.25;;;4.95;100.00
42001;BME280;27689;48.390;10.856;2023-12-20T03:51:05;96058.03;;;4.98;100.00
42001;BME280;27689;48.390;10.856;2023-12-20T03:53:49;96060.03;;;5.06;100.00
42001;BME280;27689;48.390;10.856;2023-12-20T03:56:33;96058.16;;;5.08;100.00
42001;BME280;27689;48.390;10.856;2023-12-20T03:59:17;96054.19;;;5.15;100.00
42001;BME280;27689;48.390;10.856;2023-12-20T04:02:01;96061.59;;;5.08;100.00
42001;BME280;27689;48.390;10.856;2023-12-20T04:04:45;96067.00;;;5.05;100.00
42001;BME280;27689;48.390;10.856;2023-12-20T04:07:29;96074.09;;;5.03;100.00
42001;BME280;27689;48.390;10.856;2023-12-20T04:10:13;96078.34;;;5.04;100.00
42001;BME280;27689;48.390;10.856;2023-12-20T04:12:57;96061.47;;;4.99;100.00
42001;BME280;27689;48.390;10.856;2023-12-20T04:15:41;96062.19;;;5.01;100.00
42001;BME280;27689;48.390;10.856;2023-12-20T04:18:25;96064.38;;;4.94;100.00
42001;BME280;27689;48.390;10.856;2023-12-20T04:21:09;96072.88;;;4.85;100.00
42001;BME280;27689;48.390;10.856;2023-12-20T04:23:53;96068.84;;;4.92;100.00
42001;BME280;27689;48.390;10.856;2023-12-20T04:26:37;96079.34;;;4.90;100.00
42001;BME280;27689;48.390;10.856;2023-12-20T04:29:21;96081.25;;;4.88;100.00
42001;BME280;27689;48.390;10.856;2023-12-20T04:32:05;96082.91;;;4.89;100.00
42001;BME280;27689;48.390;10.856;2023-12-20T04:34:49;96078.19;;;4.94;100.00
42001;BME280;27689;48.390;10.856;2023-12-20T04:37:33;96083.03;;;4.88;100.00
42001;BME280;27689;48.390;10.856;2023-12-20T04:40:17;96073.34;;;4.90;100.00
42001;BME280;27689;48.390;10.856;2023-12-20T04:43:01;96090.09;;;4.86;100.00
42001;BME280;27689;48.390;10.856;2023-12-20T04:45:45;96082.09;;;4.89;100.00
42001;BME280;27689;48.390;10.856;2023-12-20T04:48:28;96093.88;;;4.93;100.00
42001;BME280;27689;48.390;10.856;2023-12-20T04:51:12;96093.06;;;4.92;100.00
42001;BME280;27689;48.390;10.856;2023-12-20T04:53:56;96091.03;;;4.85;100.00
42001;BME280;27689;48.390;10.856;2023-12-20T04:56:41;96097.00;;;4.74;100.00
42001;BME280;27689;48.390;10.856;2023-12-20T04:59:25;96097.16;;;4.84;100.00
42001;BME280;27689;48.390;10.856;2023-12-20T05:02:09;96108.88;;;4.89;100.00
42001;BME280;27689;48.390;10.856;2023-12-20T05:04:53;96106.50;;;4.86;100.00
42001;BME280;27689;48.390;10.856;2023-12-20T05:07:37;96105.06;;;4.82;100.00
42001;BME280;27689;48.390;10.856;2023-12-20T05:10:21;96104.63;;;4.88;100.00
42001;BME280;27689;48.390;10.856;2023-12-20T05:13:05;96104.91;;;4.73;100.00
42001;BME280;27689;48.390;10.856;2023-12-20T05:15:49;96105.88;;;4.83;100.00
42001;BME280;27689;48.390;10.856;2023-12-20T05:18:32;96102.13;;;4.87;100.00
42001;BME280;27689;48.390;10.856;2023-12-20T05:21:16;96104.47;;;4.90;100.00
42001;BME280;27689;48.390;10.856;2023-12-20T05:24:00;96122.06;;;4.86;100.00
42001;BME280;27689;48.390;10.856;2023-12-20T05:26:44;96110.75;;;4.87;100.00
42001;BME280;27689;48.390;10.856;2023-12-20T05:29:28;96118.66;;;4.86;100.00
42001;BME280;27689;48.390;10.856;2023-12-20T05:32:12;96120.00;;;4.79;100.00
42001;BME280;27689;48.390;10.856;2023-12-20T05:34:56;96111.63;;;4.75;100.00
42001;BME280;27689;48.390;10.856;2023-12-20T05:37:40;96121.50;;;4.94;100.00
42001;BME280;27689;48.390;10.856;2023-12-20T05:40:24;96121.72;;;4.91;100.00
42001;BME280;27689;48.390;10.856;2023-12-20T05:43:08;96129.75;;;4.88;100.00
42001;BME280;27689;48.390;10.856;2023-12-20T05:45:52;96126.91;;;4.91;100.00
42001;BME280;27689;48.390;10.856;2023-12-20T05:48:36;96130.50;;;4.77;100.00
42001;BME280;27689;48.390;10.856;2023-12-20T05:51:19;96148.56;;;4.79;100.00
42001;BME280;27689;48.390;10.856;2023-12-20T05:54:04;96153.13;;;4.75;100.00
42001;BME280;27689;48.390;10.856;2023-12-20T05:56:48;96164.13;;;4.79;100.00
42001;BME280;27689;48.390;10.856;2023-12-20T05:59:32;96170.03;;;4.81;100.00
42001;BME280;27689;48.390;10.856;2023-12-20T06:02:16;96176.91;;;4.82;100.00
42001;BME280;27689;48.390;10.856;2023-12-20T06:04:59;96168.34;;;4.69;100.00
42001;BME280;27689;48.390;10.856;2023-12-20T06:07:43;96176.34;;;4.66;100.00
42001;BME280;27689;48.390;10.856;2023-12-20T06:10:28;96181.19;;;4.70;100.00
42001;BME280;27689;48.390;10.856;2023-12-20T06:13:12;96174.66;;;4.65;100.00
42001;BME280;27689;48.390;10.856;2023-12-20T06:15:57;96172.59;;;4.70;100.00
42001;BME280;27689;48.390;10.856;2023-12-20T06:18:41;96165.53;;;4.72;100.00
42001;BME280;27689;48.390;10.856;2023-12-20T06:21:25;96176.44;;;4.64;100.00
42001;BME280;27689;48.390;10.856;2023-12-20T06:24:09;96172.63;;;4.57;100.00
42001;BME280;27689;48.390;10.856;2023-12-20T06:26:53;96169.81;;;4.60;100.00
42001;BME280;27689;48.390;10.856;2023-12-20T06:29:38;96178.41;;;4.60;100.00
42001;BME280;27689;48.390;10.856;2023-12-20T06:32:22;96194.91;;;4.72;100.00
42001;BME280;27689;48.390;10.856;2023-12-20T06:35:07;96199.63;;;4.54;100.00
42001;BME280;27689;48.390;10.856;2023-12-20T06:37:50;96204.97;;;4.64;100.00
42001;BME280;27689;48.390;10.856;2023-12-20T06:40:34;96204.44;;;4.72;100.00
42001;BME280;27689;48.390;10.856;2023-12-20T06:43:18;96211.97;;;4.51;100.00
42001;BME280;27689;48.390;10.856;2023-12-20T06:46:02;96210.50;;;4.59;100.00
42001;BME280;27689;48.390;10.856;2023-12-20T06:48:46;96214.53;;;4.64;100.00
42001;BME280;27689;48.390;10.856;2023-12-20T06:51:30;96217.31;;;4.60;100.00
42001;BME280;27689;48.390;10.856;2023-12-20T06:54:14;96217.88;;;4.53;100.00
42001;BME280;27689;48.390;10.856;2023-12-20T06:56:58;96228.19;;;4.42;100.00
42001;BME280;27689;48.390;10.856;2023-12-20T06:59:42;96231.72;;;4.41;100.00
42001;BME280;27689;48.390;10.856;2023-12-20T07:02:26;96238.66;;;4.40;100.00
42001;BME280;27689;48.390;10.856;2023-12-20T07:05:16;96236.91;;;4.41;100.00
42001;BME280;27689;48.390;10.856;2023-12-20T07:07:59;96240.44;;;4.40;100.00
42001;BME280;27689;48.390;10.856;2023-12-20T07:10:43;96232.19;;;4.46;100.00
42001;BME280;27689;48.390;10.856;2023-12-20T07:13:27;96245.72;;;4.38;100.00
42001;BME280;27689;48.390;10.856;2023-12-20T07:16:11;96243.13;;;4.38;100.00
42001;BME280;27689;48.390;10.856;2023-12-20T07:18:55;96247.78;;;4.33;100.00
42001;BME280;27689;48.390;10.856;2023-12-20T07:21:40;96248.50;;;4.35;100.00
42001;BME280;27689;48.390;10.856;2023-12-20T07:24:24;96245.09;;;4.35;100.00
42001;BME280;27689;48.390;10.856;2023-12-20T07:27:08;96248.13;;;4.29;100.00
42001;BME280;27689;48.390;10.856;2023-12-20T07:29:52;96243.84;;;4.40;100.00
42001;BME280;27689;48.390;10.856;2023-12-20T07:32:36;96254.50;;;4.48;100.00
42001;BME280;27689;48.390;10.856;2023-12-20T07:35:20;96248.63;;;4.34;100.00
42001;BME280;27689;48.390;10.856;2023-12-20T07:38:04;96259.09;;;4.32;100.00
42001;BME280;27689;48.390;10.856;2023-12-20T07:40:48;96261.28;;;4.38;100.00
42001;BME280;27689;48.390;10.856;2023-12-20T07:43:32;96258.69;;;4.25;100.00
42001;BME280;27689;48.390;10.856;2023-12-20T07:46:17;96260.44;;;4.38;100.00
42001;BME280;27689;48.390;10.856;2023-12-20T07:49:09;96280.25;;;4.39;100.00
42001;BME280;27689;48.390;10.856;2023-12-20T07:51:53;96274.75;;;4.43;100.00
42001;BME280;27689;48.390;10.856;2023-12-20T07:54:37;96277.88;;;4.36;100.00
42001;BME280;27689;48.390;10.856;2023-12-20T07:57:21;96287.75;;;4.43;100.00
42001;BME280;27689;48.390;10.856;2023-12-20T08:00:05;96293.94;;;4.53;100.00
42001;BME280;27689;48.390;10.856;2023-12-20T08:02:49;96288.78;;;4.41;100.00
42001;BME280;27689;48.390;10.856;2023-12-20T08:05:33;96291.56;;;4.50;100.00
42001;BME280;27689;48.390;10.856;2023-12-20T08:08:17;96296.00;;;4.48;100.00
42001;BME280;27689;48.390;10.856;2023-12-20T08:11:01;96294.03;;;4.52;100.00
42001;BME280;27689;48.390;10.856;2023-12-20T08:13:45;96279.97;;;4.43;100.00
42001;BME280;27689;48.390;10.856;2023-12-20T08:16:29;96288.22;;;4.48;100.00
42001;BME280;27689;48.390;10.856;2023-12-20T08:19:13;96294.59;;;4.44;100.00
42001;BME280;27689;48.390;10.856;2023-12-20T08:21:57;96302.34;;;4.57;100.00
42001;BME280;27689;48.390;10.856;2023-12-20T08:24:41;96310.97;;;4.45;100.00
42001;BME280;27689;48.390;10.856;2023-12-20T08:27:25;96304.44;;;4.39;100.00
42001;BME280;27689;48.390;10.856;2023-12-20T08:30:09;96308.47;;;4.56;100.00
42001;BME280;27689;48.390;10.856;2023-12-20T08:32:53;96304.19;;;4.68;100.00
42001;BME280;27689;48.390;10.856;2023-12-20T08:35:37;96309.69;;;4.63;100.00
42001;BME280;27689;48.390;10.856;2023-12-20T08:38:20;96310.63;;;4.62;100.00
42001;BME280;27689;48.390;10.856;2023-12-20T08:41:05;96305.34;;;4.64;100.00
42001;BME280;27689;48.390;10.856;2023-12-20T08:43:49;96304.81;;;4.71;100.00
42001;BME280;27689;48.390;10.856;2023-12-20T08:46:33;96313.09;;;4.76;100.00
42001;BME280;27689;48.390;10.856;2023-12-20T08:49:16;96311.03;;;4.81;100.00
42001;BME280;27689;48.390;10.856;2023-12-20T08:52:00;96311.22;;;4.78;100.00
42001;BME280;27689;48.390;10.856;2023-12-20T08:54:44;96301.69;;;4.79;100.00
42001;BME280;27689;48.390;10.856;2023-12-20T08:57:28;96296.94;;;4.73;100.00
42001;BME280;27689;48.390;10.856;2023-12-20T09:00:12;96290.09;;;4.72;100.00
42001;BME280;27689;48.390;10.856;2023-12-20T09:02:57;96300.63;;;4.81;100.00
42001;BME280;27689;48.390;10.856;2023-12-20T09:05:41;96295.88;;;4.88;100.00
42001;BME280;27689;48.390;10.856;2023-12-20T09:08:24;96289.75;;;4.89;100.00
42001;BME280;27689;48.390;10.856;2023-12-20T09:11:08;96285.69;;;4.85;100.00
42001;BME280;27689;48.390;10.856;2023-12-20T09:13:52;96285.69;;;4.85;100.00
42001;BME280;27689;48.390;10.856;2023-12-20T09:16:36;96280.47;;;4.97;100.00
42001;BME280;27689;48.390;10.856;2023-12-20T09:19:20;96288.03;;;5.01;100.00
42001;BME280;27689;48.390;10.856;2023-12-20T09:22:04;96294.53;;;5.06;100.00
42001;BME280;27689;48.390;10.856;2023-12-20T09:24:48;96297.66;;;5.11;100.00
42001;BME280;27689;48.390;10.856;2023-12-20T09:27:32;96285.09;;;5.05;100.00
42001;BME280;27689;48.390;10.856;2023-12-20T09:30:15;96288.88;;;5.01;100.00
42001;BME280;27689;48.390;10.856;2023-12-20T09:32:59;96283.84;;;5.11;100.00
42001;BME280;27689;48.390;10.856;2023-12-20T09:35:43;96290.38;;;5.16;100.00
42001;BME280;27689;48.390;10.856;2023-12-20T09:38:27;96297.97;;;5.19;100.00
42001;BME280;27689;48.390;10.856;2023-12-20T09:41:11;96286.84;;;5.17;100.00
42001;BME280;27689;48.390;10.856;2023-12-20T09:43:55;96295.94;;;5.23;100.00
42001;BME280;27689;48.390;10.856;2023-12-20T09:46:45;96292.09;;;5.28;100.00
42001;BME280;27689;48.390;10.856;2023-12-20T09:49:33;96286.69;;;5.31;100.00
42001;BME280;27689;48.390;10.856;2023-12-20T09:52:17;96279.88;;;5.42;100.00
42001;BME280;27689;48.390;10.856;2023-12-20T09:55:03;96278.53;;;5.36;100.00
42001;BME280;27689;48.390;10.856;2023-12-20T09:57:49;96282.63;;;5.27;100.00
42001;BME280;27689;48.390;10.856;2023-12-20T10:00:34;96284.66;;;5.35;100.00
42001;BME280;27689;48.390;10.856;2023-12-20T10:03:18;96280.44;;;5.34;100.00
42001;BME280;27689;48.390;10.856;2023-12-20T10:06:06;96276.84;;;5.48;100.00
42001;BME280;27689;48.390;10.856;2023-12-20T10:08:50;96271.03;;;5.44;100.00
42001;BME280;27689;48.390;10.856;2023-12-20T10:11:35;96260.91;;;5.52;100.00
42001;BME280;27689;48.390;10.856;2023-12-20T10:14:19;96264.34;;;5.64;100.00
42001;BME280;27689;48.390;10.856;2023-12-20T10:17:03;96263.56;;;5.63;100.00
42001;BME280;27689;48.390;10.856;2023-12-20T10:19:47;96252.59;;;5.71;100.00
42001;BME280;27689;48.390;10.856;2023-12-20T10:22:31;96253.53;;;5.70;100.00
42001;BME280;27689;48.390;10.856;2023-12-20T10:25:15;96247.28;;;5.73;100.00
42001;BME280;27689;48.390;10.856;2023-12-20T10:28:09;96250.31;;;5.66;100.00
42001;BME280;27689;48.390;10.856;2023-12-20T10:30:54;96255.31;;;5.81;100.00
42001;BME280;27689;48.390;10.856;2023-12-20T10:33:41;96244.09;;;5.80;100.00
42001;BME280;27689;48.390;10.856;2023-12-20T10:36:26;96245.41;;;5.75;100.00
42001;BME280;27689;48.390;10.856;2023-12-20T10:39:10;96241.25;;;5.72;100.00
42001;BME280;27689;48.390;10.856;2023-12-20T10:41:55;96245.63;;;5.83;100.00
42001;BME280;27689;48.390;10.856;2023-12-20T10:44:39;96262.28;;;5.80;100.00
42001;BME280;27689;48.390;10.856;2023-12-20T10:47:24;96252.47;;;5.73;100.00
42001;BME280;27689;48.390;10.856;2023-12-20T10:50:09;96249.91;;;5.84;100.00
42001;BME280;27689;48.390;10.856;2023-12-20T10:52:53;96249.91;;;5.84;100.00
42001;BME280;27689;48.390;10.856;2023-12-20T10:55:39;96260.41;;;5.82;100.00
42001;BME280;27689;48.390;10.856;2023-12-20T10:58:23;96266.94;;;5.88;100.00
42001;BME280;27689;48.390;10.856;2023-12-20T11:01:07;96258.03;;;5.79;100.00
42001;BME280;27689;48.390;10.856;2023-12-20T11:03:53;96267.03;;;5.75;100.00
42001;BME280;27689;48.390;10.856;2023-12-20T11:06:40;96261.06;;;5.62;100.00
42001;BME280;27689;48.390;10.856;2023-12-20T11:09:28;96254.88;;;5.52;100.00
42001;BME280;27689;48.390;10.856;2023-12-20T11:12:24;96246.81;;;5.44;100.00
42001;BME280;27689;48.390;10.856;2023-12-20T11:15:10;96255.63;;;5.30;100.00
42001;BME280;27689;48.390;10.856;2023-12-20T11:17:57;96258.22;;;5.30;100.00
42001;BME280;27689;48.390;10.856;2023-12-20T11:20:42;96257.81;;;5.23;100.00
42001;BME280;27689;48.390;10.856;2023-12-20T11:23:26;96249.19;;;5.23;100.00
42001;BME280;27689;48.390;10.856;2023-12-20T11:26:10;96246.69;;;5.34;100.00
42001;BME280;27689;48.390;10.856;2023-12-20T11:28:54;96244.88;;;5.35;100.00
42001;BME280;27689;48.390;10.856;2023-12-20T11:31:39;96257.06;;;5.34;100.00
42001;BME280;27689;48.390;10.856;2023-12-20T11:34:26;96260.03;;;5.41;100.00
42001;BME280;27689;48.390;10.856;2023-12-20T11:37:10;96247.88;;;5.41;100.00
42001;BME280;27689;48.390;10.856;2023-12-20T11:40:27;96251.19;;;5.43;100.00
42001;BME280;27689;48.390;10.856;2023-12-20T11:43:05;96258.69;;;5.35;100.00
42001;BME280;27689;48.390;10.856;2023-12-20T11:45:49;96247.97;;;5.40;100.00
42001;BME280;27689;48.390;10.856;2023-12-20T11:48:36;96247.47;;;5.35;100.00
42001;BME280;27689;48.390;10.856;2023-12-20T11:51:21;96232.13;;;5.31;100.00
42001;BME280;27689;48.390;10.856;2023-12-20T11:54:05;96244.63;;;5.26;100.00
42001;BME280;27689;48.390;10.856;2023-12-20T11:56:49;96247.78;;;5.19;100.00
42001;BME280;27689;48.390;10.856;2023-12-20T11:59:33;96239.84;;;5.20;100.00
42001;BME280;27689;48.390;10.856;2023-12-20T12:02:17;96239.03;;;5.20;100.00
42001;BME280;27689;48.390;10.856;2023-12-20T12:05:00;96234.22;;;5.26;100.00
42001;BME280;27689;48.390;10.856;2023-12-20T12:07:44;96223.84;;;5.26;100.00
42001;BME280;27689;48.390;10.856;2023-12-20T12:10:29;96234.00;;;5.29;100.00
42001;BME280;27689;48.390;10.856;2023-12-20T12:13:13;96230.94;;;5.36;100.00
42001;BME280;27689;48.390;10.856;2023-12-20T12:15:58;96231.88;;;5.35;100.00
42001;BME280;27689;48.390;10.856;2023-12-20T12:18:43;96228.81;;;5.29;100.00
42001;BME280;27689;48.390;10.856;2023-12-20T12:21:27;96233.41;;;5.26;100.00
42001;BME280;27689;48.390;10.856;2023-12-20T12:24:11;96229.44;;;5.33;100.00
42001;BME280;27689;48.390;10.856;2023-12-20T12:26:57;96223.28;;;5.34;100.00
42001;BME280;27689;48.390;10.856;2023-12-20T12:29:41;96220.81;;;5.32;100.00
42001;BME280;27689;48.390;10.856;2023-12-20T12:32:24;96222.00;;;5.40;100.00
42001;BME280;27689;48.390;10.856;2023-12-20T12:35:08;96225.75;;;5.36;100.00
42001;BME280;27689;48.390;10.856;2023-12-20T12:37:53;96228.59;;;5.32;100.00
42001;BME280;27689;48.390;10.856;2023-12-20T12:40:37;96231.66;;;5.38;100.00
42001;BME280;27689;48.390;10.856;2023-12-20T12:43:21;96223.88;;;5.38;100.00
42001;BME280;27689;48.390;10.856;2023-12-20T12:46:06;96222.09;;;5.38;100.00
42001;BME280;27689;48.390;10.856;2023-12-20T12:48:50;96222.22;;;5.37;100.00
42001;BME280;27689;48.390;10.856;2023-12-20T12:51:34;96226.22;;;5.29;100.00
42001;BME280;27689;48.390;10.856;2023-12-20T12:54:18;96227.16;;;5.28;100.00
42001;BME280;27689;48.390;10.856;2023-12-20T12:57:02;96228.59;;;5.32;100.00
42001;BME280;27689;48.390;10.856;2023-12-20T12:59:46;96223.97;;;5.36;99.86
42001;BME280;27689;48.390;10.856;2023-12-20T13:02:30;96230.84;;;5.37;99.71
42001;BME280;27689;48.390;10.856;2023-12-20T13:05:14;96225.91;;;5.34;99.86
42001;BME280;27689;48.390;10.856;2023-12-20T13:07:58;96214.16;;;5.28;98.78
42001;BME280;27689;48.390;10.856;2023-12-20T13:10:42;96223.63;;;5.29;98.19
42001;BME280;27689;48.390;10.856;2023-12-20T13:13:26;96212.19;;;5.32;97.33
42001;BME280;27689;48.390;10.856;2023-12-20T13:16:10;96207.28;;;5.16;100.00
42001;BME280;27689;48.390;10.856;2023-12-20T13:18:54;96214.97;;;5.18;97.00
42001;BME280;27689;48.390;10.856;2023-12-20T13:21:38;96210.34;;;5.21;96.67
42001;BME280;27689;48.390;10.856;2023-12-20T13:24:22;96215.44;;;5.23;96.03
42001;BME280;27689;48.390;10.856;2023-12-20T13:27:05;96217.44;;;5.19;96.13
42001;BME280;27689;48.390;10.856;2023-12-20T13:29:49;96216.25;;;5.23;96.92
42001;BME280;27689;48.390;10.856;2023-12-20T13:32:33;96218.13;;;5.21;95.48
42001;BME280;27689;48.390;10.856;2023-12-20T13:35:17;96226.66;;;5.23;96.06
42001;BME280;27689;48.390;10.856;2023-12-20T13:38:01;96237.41;;;5.19;96.41
42001;BME280;27689;48.390;10.856;2023-12-20T13:40:45;96224.28;;;5.20;94.93
42001;BME280;27689;48.390;10.856;2023-12-20T13:43:29;96232.91;;;5.21;95.15
42001;BME280;27689;48.390;10.856;2023-12-20T13:46:13;96235.13;;;5.14;95.43
42001;BME280;27689;48.390;10.856;2023-12-20T13:48:57;96225.34;;;5.18;95.98
42001;BME280;27689;48.390;10.856;2023-12-20T13:51:41;96221.63;;;5.09;95.97
42001;BME280;27689;48.390;10.856;2023-12-20T13:54:25;96231.81;;;5.12;96.54
42001;BME280;27689;48.390;10.856;2023-12-20T13:57:10;96222.09;;;5.03;95.98
42001;BME280;27689;48.390;10.856;2023-12-20T13:59:54;96234.13;;;5.04;96.59
42001;BME280;27689;48.390;10.856;2023-12-20T14:02:37;96232.69;;;5.00;96.82
42001;BME280;27689;48.390;10.856;2023-12-20T14:05:21;96245.09;;;5.08;96.52
42001;BME280;27689;48.390;10.856;2023-12-20T14:08:07;96243.13;;;5.11;95.56
42001;BME280;27689;48.390;10.856;2023-12-20T14:10:51;96244.78;;;5.12;96.08
42001;BME280;27689;48.390;10.856;2023-12-20T14:13:35;96246.16;;;5.05;97.31
42001;BME280;27689;48.390;10.856;2023-12-20T14:16:19;96247.16;;;5.15;93.51
42001;BME280;27689;48.390;10.856;2023-12-20T14:19:03;96247.66;;;5.20;92.01
42001;BME280;27689;48.390;10.856;2023-12-20T14:21:46;96256.50;;;5.18;91.59